Rogers Spring, Nevada Weather observations

Data are for 10 minute period ending at time listed.
 Day   Time   Solar   Ave.   Ave.  Ave.  Vector  Max.   Baro.   Total    
  of    of     Rad.   Air    Rel.  Wind   Wind   Wind  Press.  Precip.   
Year   Day            Temp.  Hum.  Speed  Dir.   Gust                    
2016   (PST)  Kw/m2    F      %     mph   deg.    mph    mb.     in.     
-------------------------------------------------------------------------
  40    8:50   0.00   59.2    30    6.5   306    11.5   945.9    0.00 
  40    9:00   0.00   60.9    29    5.3   304     8.8   946.1    0.00 
  40    9:10   0.00   63.5    25    4.7   330     8.8   946.3    0.00 
  40    9:20   0.00   63.2    26    7.6   309    12.5   946.4    0.00 
  40    9:30   0.00   62.7    26    7.6   320    12.9   946.5    0.00 
  40    9:40   0.00   63.6    25    8.2   326    12.8   946.6    0.00 
  40    9:50   0.00   64.6    23    8.2   325    12.6   946.5    0.00 
  40   10:00   0.00   65.5    22    8.4   324    13.2   946.5    0.00 
  40   10:10   0.00   66.8    21    6.8   323    11.6   946.4    0.00 
  40   10:20   0.00   68.0    20    6.4   347    11.3   946.4    0.00 
  40   10:30   0.00   68.5    19    4.9   320    12.9   946.4    0.00 
  40   10:40   0.00   69.7    17    1.9   335     5.9   946.2    0.00 
  40   10:50   0.36   71.0    16    3.4   350     7.4   946.1    0.00 
  40   11:00   0.58   71.9    15    3.3    28     7.2   945.9    0.00 
  40   11:10   0.58   71.8    17    5.9   334    10.7   945.8    0.00 
  40   11:20   0.59   72.0    15    4.9    40     9.5   945.6    0.00 
  40   11:30   0.60   72.8    14    4.0    41     7.9   945.4    0.00 
  40   11:40   0.60   73.2    14    5.6    24    10.2   945.1    0.00 
  40   11:50   0.61   73.5    14    5.1    27     8.8   944.9    0.00 
  40   12:00   0.61   73.7    14    4.2    57     7.5   944.6    0.00 
  40   12:10   0.60   74.9    13    5.3    28    11.1   944.4    0.00 
  40   12:20   0.61   74.7    13    6.3    44    11.7   944.2    0.00 
  40   12:30   0.60   74.7    13    6.3    22    12.6   943.9    0.00 
  40   12:40   0.59   74.9    13    6.7    31    10.2   943.7    0.00 
  40   12:50   0.59   75.0    13    7.1    36    12.6   943.5    0.00 
  40   13:00   0.59   75.9    12    6.5    15    11.8   943.2    0.00 
  40   13:10   0.58   75.9    12    7.6    27    13.6   942.9    0.00 
  40   13:20   0.57   76.7    12    6.1    25    10.8   942.8    0.00 
  40   13:30   0.56   76.1    12    6.7    20    11.1   942.6    0.00 
  40   13:40   0.54   76.7    12    5.7    30    10.6   942.5    0.00 
  40   13:50   0.53   76.9    12    5.7    34     9.1   942.3    0.00 
  40   14:00   0.51   77.1    12    6.3    44    12.2   942.2    0.00 
  40   14:10   0.49   76.9    12    6.9    45    11.9   942.1    0.00 
  40   14:20   0.47   77.3    12    6.5    43    11.7   941.9    0.00 
  40   14:30   0.45   77.1    12    7.4    44    11.8   941.8    0.00 
  40   14:40   0.43   77.1    12    6.7    47    10.9   941.8    0.00 
  40   14:50   0.40   77.2    12    6.3    39    10.7   941.7    0.00 
  40   15:00   0.27   77.1    12    5.8    41     9.5   941.7    0.00 
  40   15:10   0.35   77.4    12    5.9    38     9.9   941.6    0.00 
  40   15:20   0.32   77.3    12    5.5    38    11.0   941.6    0.00 
  40   15:30   0.21   77.1    12    5.1    54     8.9   941.6    0.00 
  40   15:40   0.24   77.0    12    4.9    48     9.1   941.6    0.00 
  40   15:50   0.24   76.7    12    4.6    54     7.7   941.5    0.00 
  40   16:00   0.19   76.4    13    5.3    65     9.1   941.5    0.00 
  40   16:10   0.18   76.0    13    4.5    65     8.8   941.5    0.00 
  40   16:20   0.16   75.6    13    4.7    64     8.6   941.6    0.00 
  40   16:30   0.01   74.9    13    4.2    64     7.9   941.5    0.00 
  40   16:40   0.00   74.0    14    4.0    58     6.5   941.6    0.00 
  40   16:50   0.02   73.1    14    2.9    56     5.5   941.7    0.00 
  40   17:00   0.06   71.6    15    2.7    54     4.3   941.8    0.00 
  40   17:10   0.02   69.6    17    1.7    38     3.9   941.8    0.00 
  40   17:20   0.01   66.4    20    1.5   354     2.6   941.8    0.00 
  40   17:30   0.00   62.9    22    1.8    10     3.1   941.8    0.00 
  40   17:40   0.00   62.5    22    2.8    37     6.3   941.7    0.00 
  40   17:50   0.00   62.8    21    2.8    41     4.4   941.6    0.00 
  40   18:00   0.00   61.4    22    2.7    46     3.9   941.6    0.00 
  40   18:10   0.00   60.9    22    3.2    65     5.8   941.6    0.00 
  40   18:20   0.00   60.4    22    3.8    70     5.6   941.5    0.00 
  40   18:30   0.00   59.9    23    3.9    49     5.6   941.4    0.00 
  40   18:40   0.00   59.3    24    3.8    47     4.8   941.4    0.00 
  40   18:50   0.00   58.4    25    2.2    62     3.7   941.4    0.00 
  40   19:00   0.00   56.0    27    1.8    65     2.7   941.4    0.00 
  40   19:10   0.00   52.8    32    2.5    51     3.5   941.4    0.00 
  40   19:20   0.00   53.7    31    3.1    68     4.2   941.5    0.00 
  40   19:30   0.00   53.6    32    2.6    72     4.2   941.6    0.00 
  40   19:40   0.00   49.7    38    1.8   108     4.7   941.7    0.00 
  40   19:50   0.00   49.0    38    1.2   123     2.0   941.7    0.00 
  40   20:00   0.00   50.3    38    2.5    71     4.5   941.7    0.00 
  40   20:10   0.00   53.7    34    3.6    51     5.3   941.8    0.00 
  40   20:20   0.00   53.2    35    2.8    67     4.0   941.9    0.00 
  40   20:30   0.00   50.7    40    3.0    74     4.1   942.0    0.00 
  40   20:40   0.00   52.4    37    3.4    85     5.2   942.2    0.00 
  40   20:50   0.00   50.6    41    3.6    70     5.5   942.4    0.00 
  40   21:00   0.00   51.2    39    2.9    71     4.0   942.4    0.00 
  40   21:10   0.00   48.5    45    2.8    60     3.4   942.5    0.00 
  40   21:20   0.00   48.8    44    2.5    65     3.4   942.6    0.00 
  40   21:30   0.00   45.6    51    2.9    28     4.6   942.6    0.00 
  40   21:40   0.00   48.3    44    4.2    64     5.8   942.7    0.00 
  40   21:50   0.00   50.9    40    3.6    42     4.8   942.8    0.00 
  40   22:00   0.00   49.2    44    2.3    49     4.2   942.8    0.00 
  40   22:10   0.00   48.9    43    3.4    83     6.9   942.7    0.00 
  40   22:20   0.00   53.2    34    3.0   100     5.6   942.6    0.00 
  40   22:30   0.00   54.8    32    4.2   108     8.3   942.5    0.00 
  40   22:40   0.00   55.1    31    4.3   111     7.5   942.3    0.00 
  40   22:50   0.00   54.9    31    3.7   100     8.3   942.1    0.00 
  40   23:00   0.00   53.6    33    2.9    72     5.6   942.0    0.00 
  40   23:10   0.00   51.9    36    3.7    17     5.1   942.0    0.00 
  40   23:20   0.00   51.9    36    2.8    18     5.1   942.3    0.00 
  40   23:30   0.00   49.2    41    1.8   336     3.3   942.4    0.00 
  40   23:40   0.00   45.7    50    1.4   344     3.4   942.4    0.00 
  40   23:50   0.00   44.1    54    1.6   309     2.7   942.5    0.00 
  41    0:00   0.00   43.0    56    0.4    43     1.4   942.5    0.00 
  41    0:10   0.00   43.1    55    1.3    92     3.3   942.5    0.00 
  41    0:20   0.00   43.6    53    2.7    82     4.6   942.5    0.00 
  41    0:30   0.00   44.2    51    3.2    86     4.7   942.4    0.00 
  41    0:40   0.00   44.6    51    1.7    88     3.2   942.6    0.00 
  41    0:50   0.00   40.8    60    1.0    14     4.6   942.7    0.00 
  41    1:00   0.00   43.3    54    3.2    83     6.6   942.8    0.00 
  41    1:10   0.00   46.2    47    1.4    37     3.7   942.8    0.00 
  41    1:20   0.00   44.5    50    1.9    52     3.7   942.7    0.00 
  41    1:30   0.00   49.3    40    2.2    74     8.0   942.8    0.00 
  41    1:40   0.00   51.3    36    4.1    95     8.6   942.8    0.00 
  41    1:50   0.00   51.2    36    4.2    93     7.6   942.7    0.00 
  41    2:00   0.00   51.6    35    5.6   100    10.2   942.6    0.00 
  41    2:10   0.00   51.2    36    5.2    64     8.3   942.6    0.00 
  41    2:20   0.00   46.4    44    5.5    50     8.1   942.7    0.00 
  41    2:30   0.00   43.0    52    5.2    18     7.5   942.7    0.00 
  41    2:40   0.00   43.1    52    3.8     6     6.4   942.8    0.00 
  41    2:50   0.00   42.3    54    1.9    26     3.7   942.9    0.00 
  41    3:00   0.00   42.6    53    1.5    33     3.1   943.0    0.00 
  41    3:10   0.00   42.6    54    1.9    32     3.0   943.0    0.00 
  41    3:20   0.00   42.6    53    1.7     9     3.1   942.8    0.00 
  41    3:30   0.00   42.0    54    2.4   350     4.4   942.9    0.00 
  41    3:40   0.00   41.8    55    1.4    60     2.9   942.8    0.00 
  41    3:50   0.00   39.4    62    1.2   356     2.3   943.0    0.00 
  41    4:00   0.00   39.2    60    2.2   297     3.9   943.0    0.00 
  41    4:10   0.00   38.6    62    0.1   300     1.4   943.2    0.00 
  41    4:20   0.00   38.0    62    1.0   129     1.7   943.3    0.00 
  41    4:30   0.00   37.3    64    1.6   111     2.6   943.2    0.00 
  41    4:40   0.00   36.4    65    0.3   110     2.6   943.3    0.00 
  41    4:50   0.00   34.2    73    1.2    53     3.3   943.5    0.00 
  41    5:00   0.00   32.7    74    0.9    80     2.9   943.6    0.00 
  41    5:10   0.00   31.3    76    0.4   321     2.8   943.7    0.00 
  41    5:20   0.00   31.7    78    0.6   346     2.1   943.8    0.00 
  41    5:30   0.00   32.9    75    3.1    79     5.4   943.9    0.00 
  41    5:40   0.00   37.1    65    4.0    76     5.7   944.0    0.00 
  41    5:50   0.00   38.3    62    3.4    75     6.5   944.0    0.00 
  41    6:00   0.00   41.6    55    2.1   170     5.4   943.9    0.00 
  41    6:10   0.00   38.0    62    2.2   292     5.6   944.0    0.00 
  41    6:20   0.00   36.5    65    1.0   275     3.2   944.1    0.00 
  41    6:30   0.00   34.7    70    0.9   327     2.2   944.2    0.00 
  41    6:40   0.00   34.0    72    1.4    15     3.1   944.2    0.00 
  41    6:50   0.00   33.3    73    1.7    26     2.9   944.3    0.00 
  41    7:00   0.00   33.6    73    2.6    60     3.4   944.3    0.00 
  41    7:10   0.00   35.2    69    1.4    82     2.6   944.5    0.00 
  41    7:20   0.00   36.8    67    0.9    10     2.1   944.7    0.00 
  41    7:30   0.00   38.1    66    2.2    63     3.1   944.8    0.00 
  41    7:40   0.00   41.6    59    2.2    69     3.1   944.7    0.00 
  41    7:50   0.00   44.6    53    1.3    42     2.5   944.7    0.00 
  41    8:00   0.00   45.0    54    2.1    43     3.6   944.6    0.00 
  41    8:10   0.00   47.1    50    1.2    77     2.0   944.7    0.00 
  41    8:20   0.00   49.9    44    1.0    49     2.3   944.7    0.00 
  41    8:30   0.00   51.4    42    1.9   185     5.3   944.8    0.00 
  41    8:40   0.00   50.1    46    3.1   256     5.5   944.9    0.00 

Return to Rogers Spring graphs page.


Western Regional Climate Center,wrcc@dri.edu